sensor_id;sensor_type;location;lat;lon;timestamp;temperature;humidity
43520;DHT22;46848;51.980;5.918;2023-07-29T00:01:17;21.10;78.50
43520;DHT22;46848;51.980;5.918;2023-07-29T00:03:42;21.10;78.60
43520;DHT22;46848;51.980;5.918;2023-07-29T00:06:09;21.10;78.60
43520;DHT22;46848;51.980;5.918;2023-07-29T00:08:35;21.10;78.60
43520;DHT22;46848;51.980;5.918;2023-07-29T00:11:00;21.10;78.60
43520;DHT22;46848;51.980;5.918;2023-07-29T00:13:26;21.10;78.70
43520;DHT22;46848;51.980;5.918;2023-07-29T00:15:54;21.00;78.60
43520;DHT22;46848;51.980;5.918;2023-07-29T00:18:19;21.00;78.70
43520;DHT22;46848;51.980;5.918;2023-07-29T00:20:45;21.00;78.70
43520;DHT22;46848;51.980;5.918;2023-07-29T00:23:11;21.00;78.80
43520;DHT22;46848;51.980;5.918;2023-07-29T00:25:36;21.00;78.90
43520;DHT22;46848;51.980;5.918;2023-07-29T00:28:02;21.00;78.90
43520;DHT22;46848;51.980;5.918;2023-07-29T00:30:27;20.90;78.90
43520;DHT22;46848;51.980;5.918;2023-07-29T00:32:53;20.90;79.00
43520;DHT22;46848;51.980;5.918;2023-07-29T00:35:18;20.90;79.10
43520;DHT22;46848;51.980;5.918;2023-07-29T00:37:44;20.90;79.10
43520;DHT22;46848;51.980;5.918;2023-07-29T00:40:15;20.80;79.00
43520;DHT22;46848;51.980;5.918;2023-07-29T00:42:41;20.80;79.00
43520;DHT22;46848;51.980;5.918;2023-07-29T00:45:09;20.80;78.90
43520;DHT22;46848;51.980;5.918;2023-07-29T00:47:34;20.80;78.90
43520;DHT22;46848;51.980;5.918;2023-07-29T00:50:00;20.70;79.00
43520;DHT22;46848;51.980;5.918;2023-07-29T00:52:26;20.70;79.00
43520;DHT22;46848;51.980;5.918;2023-07-29T00:54:51;20.70;79.10
43520;DHT22;46848;51.980;5.918;2023-07-29T00:57:17;20.70;79.20
43520;DHT22;46848;51.980;5.918;2023-07-29T00:59:44;20.60;79.20
43520;DHT22;46848;51.980;5.918;2023-07-29T01:02:10;20.60;79.90
43520;DHT22;46848;51.980;5.918;2023-07-29T01:04:36;20.60;79.40
43520;DHT22;46848;51.980;5.918;2023-07-29T01:12:44;20.60;79.50
43520;DHT22;46848;51.980;5.918;2023-07-29T01:15:39;20.60;79.70
43520;DHT22;46848;51.980;5.918;2023-07-29T01:18:18;20.60;79.60
43520;DHT22;46848;51.980;5.918;2023-07-29T01:20:47;20.60;79.70
43520;DHT22;46848;51.980;5.918;2023-07-29T01:23:13;20.60;79.70
43520;DHT22;46848;51.980;5.918;2023-07-29T01:25:38;20.60;79.80
43520;DHT22;46848;51.980;5.918;2023-07-29T01:28:04;20.60;79.90
43520;DHT22;46848;51.980;5.918;2023-07-29T01:30:36;20.60;80.60
43520;DHT22;46848;51.980;5.918;2023-07-29T01:33:16;20.60;80.20
43520;DHT22;46848;51.980;5.918;2023-07-29T01:35:48;20.60;80.30
43520;DHT22;46848;51.980;5.918;2023-07-29T01:38:22;20.60;80.40
43520;DHT22;46848;51.980;5.918;2023-07-29T01:40:50;20.60;80.40
43520;DHT22;46848;51.980;5.918;2023-07-29T01:43:17;20.60;80.30
43520;DHT22;46848;51.980;5.918;2023-07-29T01:45:48;20.60;80.30
43520;DHT22;46848;51.980;5.918;2023-07-29T01:48:14;20.70;80.40
43520;DHT22;46848;51.980;5.918;2023-07-29T01:50:40;20.70;80.40
43520;DHT22;46848;51.980;5.918;2023-07-29T01:53:05;20.70;80.50
43520;DHT22;46848;51.980;5.918;2023-07-29T01:55:31;20.70;80.50
43520;DHT22;46848;51.980;5.918;2023-07-29T01:57:56;20.70;80.50
43520;DHT22;46848;51.980;5.918;2023-07-29T02:00:22;20.70;80.50
43520;DHT22;46848;51.980;5.918;2023-07-29T02:02:48;20.70;80.50
43520;DHT22;46848;51.980;5.918;2023-07-29T02:05:13;20.70;80.50
43520;DHT22;46848;51.980;5.918;2023-07-29T02:07:39;20.70;80.50
43520;DHT22;46848;51.980;5.918;2023-07-29T02:10:05;20.70;80.50
43520;DHT22;46848;51.980;5.918;2023-07-29T02:12:30;20.70;80.50
43520;DHT22;46848;51.980;5.918;2023-07-29T02:14:56;20.80;80.60
43520;DHT22;46848;51.980;5.918;2023-07-29T02:17:21;20.80;80.60
43520;DHT22;46848;51.980;5.918;2023-07-29T02:19:47;20.70;80.50
43520;DHT22;46848;51.980;5.918;2023-07-29T02:22:17;20.80;80.50
43520;DHT22;46848;51.980;5.918;2023-07-29T02:24:43;20.70;80.50
43520;DHT22;46848;51.980;5.918;2023-07-29T02:27:09;20.70;80.50
43520;DHT22;46848;51.980;5.918;2023-07-29T02:29:35;20.80;80.60
43520;DHT22;46848;51.980;5.918;2023-07-29T02:32:00;20.80;80.70
43520;DHT22;46848;51.980;5.918;2023-07-29T02:34:26;20.80;80.70
43520;DHT22;46848;51.980;5.918;2023-07-29T02:36:51;20.80;80.80
43520;DHT22;46848;51.980;5.918;2023-07-29T02:39:17;20.80;80.80
43520;DHT22;46848;51.980;5.918;2023-07-29T02:41:43;20.80;80.80
43520;DHT22;46848;51.980;5.918;2023-07-29T02:44:08;20.80;81.40
43520;DHT22;46848;51.980;5.918;2023-07-29T02:46:34;20.80;80.70
43520;DHT22;46848;51.980;5.918;2023-07-29T02:49:01;20.80;80.70
43520;DHT22;46848;51.980;5.918;2023-07-29T02:51:26;20.80;80.70
43520;DHT22;46848;51.980;5.918;2023-07-29T02:53:52;20.80;80.60
43520;DHT22;46848;51.980;5.918;2023-07-29T02:56:17;20.80;80.80
43520;DHT22;46848;51.980;5.918;2023-07-29T02:58:43;20.70;80.80
43520;DHT22;46848;51.980;5.918;2023-07-29T03:01:10;20.70;80.80
43520;DHT22;46848;51.980;5.918;2023-07-29T03:03:35;20.70;80.80
43520;DHT22;46848;51.980;5.918;2023-07-29T03:06:09;20.70;80.50
43520;DHT22;46848;51.980;5.918;2023-07-29T03:08:35;20.70;80.60
43520;DHT22;46848;51.980;5.918;2023-07-29T03:11:09;20.60;80.50
43520;DHT22;46848;51.980;5.918;2023-07-29T03:13:35;20.60;80.70
43520;DHT22;46848;51.980;5.918;2023-07-29T03:16:09;20.60;80.60
43520;DHT22;46848;51.980;5.918;2023-07-29T03:18:35;20.70;80.70
43520;DHT22;46848;51.980;5.918;2023-07-29T03:21:01;20.70;80.50
43520;DHT22;46848;51.980;5.918;2023-07-29T03:23:28;20.70;80.30
43520;DHT22;46848;51.980;5.918;2023-07-29T03:25:55;20.70;80.30
43520;DHT22;46848;51.980;5.918;2023-07-29T03:28:23;20.70;80.20
43520;DHT22;46848;51.980;5.918;2023-07-29T03:30:49;20.70;80.20
43520;DHT22;46848;51.980;5.918;2023-07-29T03:33:15;20.60;80.00
43520;DHT22;46848;51.980;5.918;2023-07-29T03:35:40;20.60;80.00
43520;DHT22;46848;51.980;5.918;2023-07-29T03:38:10;20.60;79.90
43520;DHT22;46848;51.980;5.918;2023-07-29T03:40:35;20.60;79.90
43520;DHT22;46848;51.980;5.918;2023-07-29T03:43:01;20.60;79.90
43520;DHT22;46848;51.980;5.918;2023-07-29T03:45:26;20.60;79.90
43520;DHT22;46848;51.980;5.918;2023-07-29T03:47:52;20.60;79.80
43520;DHT22;46848;51.980;5.918;2023-07-29T03:50:17;20.60;79.70
43520;DHT22;46848;51.980;5.918;2023-07-29T03:52:43;20.60;79.60
43520;DHT22;46848;51.980;5.918;2023-07-29T03:55:09;20.60;79.60
43520;DHT22;46848;51.980;5.918;2023-07-29T03:57:34;20.60;79.50
43520;DHT22;46848;51.980;5.918;2023-07-29T04:00:00;20.60;79.30
43520;DHT22;46848;51.980;5.918;2023-07-29T04:02:25;20.60;79.20
43520;DHT22;46848;51.980;5.918;2023-07-29T04:04:51;20.60;79.00
43520;DHT22;46848;51.980;5.918;2023-07-29T04:07:17;20.50;78.70
43520;DHT22;46848;51.980;5.918;2023-07-29T04:09:43;20.50;78.70
43520;DHT22;46848;51.980;5.918;2023-07-29T04:12:09;20.50;78.70
43520;DHT22;46848;51.980;5.918;2023-07-29T04:14:35;20.50;78.60
43520;DHT22;46848;51.980;5.918;2023-07-29T04:17:00;20.40;78.40
43520;DHT22;46848;51.980;5.918;2023-07-29T04:19:26;20.40;78.30
43520;DHT22;46848;51.980;5.918;2023-07-29T04:21:52;20.40;78.20
43520;DHT22;46848;51.980;5.918;2023-07-29T04:24:17;20.40;78.20
43520;DHT22;46848;51.980;5.918;2023-07-29T04:26:45;20.30;78.10
43520;DHT22;46848;51.980;5.918;2023-07-29T04:29:11;20.30;77.90
43520;DHT22;46848;51.980;5.918;2023-07-29T04:31:37;20.20;77.70
43520;DHT22;46848;51.980;5.918;2023-07-29T04:34:04;20.20;77.80
43520;DHT22;46848;51.980;5.918;2023-07-29T04:36:30;20.20;78.00
43520;DHT22;46848;51.980;5.918;2023-07-29T04:38:55;20.20;78.00
43520;DHT22;46848;51.980;5.918;2023-07-29T04:41:21;20.20;78.20
43520;DHT22;46848;51.980;5.918;2023-07-29T04:43:46;20.10;77.90
43520;DHT22;46848;51.980;5.918;2023-07-29T04:46:12;20.20;77.80
43520;DHT22;46848;51.980;5.918;2023-07-29T04:48:38;20.10;77.70
43520;DHT22;46848;51.980;5.918;2023-07-29T04:51:03;20.20;77.90
43520;DHT22;46848;51.980;5.918;2023-07-29T04:53:29;20.10;77.90
43520;DHT22;46848;51.980;5.918;2023-07-29T04:55:54;20.20;77.90
43520;DHT22;46848;51.980;5.918;2023-07-29T04:58:20;20.20;77.80
43520;DHT22;46848;51.980;5.918;2023-07-29T05:00:49;20.20;77.50
43520;DHT22;46848;51.980;5.918;2023-07-29T05:03:14;20.10;77.30
43520;DHT22;46848;51.980;5.918;2023-07-29T05:05:40;20.20;76.90
43520;DHT22;46848;51.980;5.918;2023-07-29T05:08:05;20.10;76.80
43520;DHT22;46848;51.980;5.918;2023-07-29T05:10:31;20.00;76.80
43520;DHT22;46848;51.980;5.918;2023-07-29T05:12:56;20.10;76.80
43520;DHT22;46848;51.980;5.918;2023-07-29T05:15:22;20.00;76.60
43520;DHT22;46848;51.980;5.918;2023-07-29T05:17:48;20.00;76.40
43520;DHT22;46848;51.980;5.918;2023-07-29T05:20:13;20.00;76.50
43520;DHT22;46848;51.980;5.918;2023-07-29T05:22:39;19.90;76.20
43520;DHT22;46848;51.980;5.918;2023-07-29T05:25:05;20.00;76.40
43520;DHT22;46848;51.980;5.918;2023-07-29T05:27:31;20.00;76.40
43520;DHT22;46848;51.980;5.918;2023-07-29T05:29:56;20.00;76.40
43520;DHT22;46848;51.980;5.918;2023-07-29T05:32:22;20.00;76.20
43520;DHT22;46848;51.980;5.918;2023-07-29T05:34:47;20.00;76.20
43520;DHT22;46848;51.980;5.918;2023-07-29T05:37:13;20.00;76.40
43520;DHT22;46848;51.980;5.918;2023-07-29T05:39:39;20.00;76.40
43520;DHT22;46848;51.980;5.918;2023-07-29T05:42:05;20.00;76.40
43520;DHT22;46848;51.980;5.918;2023-07-29T05:44:30;20.00;75.80
43520;DHT22;46848;51.980;5.918;2023-07-29T05:46:56;20.00;75.60
43520;DHT22;46848;51.980;5.918;2023-07-29T05:49:22;20.00;75.70
43520;DHT22;46848;51.980;5.918;2023-07-29T05:51:48;20.00;75.80
43520;DHT22;46848;51.980;5.918;2023-07-29T05:54:14;20.00;75.70
43520;DHT22;46848;51.980;5.918;2023-07-29T05:56:39;20.00;75.70
43520;DHT22;46848;51.980;5.918;2023-07-29T05:59:05;20.00;75.80
43520;DHT22;46848;51.980;5.918;2023-07-29T06:01:30;20.00;75.80
43520;DHT22;46848;51.980;5.918;2023-07-29T06:03:56;20.00;75.90
43520;DHT22;46848;51.980;5.918;2023-07-29T06:06:21;20.00;76.00
43520;DHT22;46848;51.980;5.918;2023-07-29T06:08:49;20.10;75.90
43520;DHT22;46848;51.980;5.918;2023-07-29T06:11:15;20.10;76.00
43520;DHT22;46848;51.980;5.918;2023-07-29T06:13:40;20.10;76.00
43520;DHT22;46848;51.980;5.918;2023-07-29T06:16:06;20.20;76.00
43520;DHT22;46848;51.980;5.918;2023-07-29T06:18:32;20.20;76.10
43520;DHT22;46848;51.980;5.918;2023-07-29T06:20:57;20.30;76.10
43520;DHT22;46848;51.980;5.918;2023-07-29T06:23:23;20.30;76.60
43520;DHT22;46848;51.980;5.918;2023-07-29T06:25:48;20.40;76.10
43520;DHT22;46848;51.980;5.918;2023-07-29T06:28:14;20.60;76.00
43520;DHT22;46848;51.980;5.918;2023-07-29T06:30:39;20.70;75.70
43520;DHT22;46848;51.980;5.918;2023-07-29T06:33:06;20.90;75.60
43520;DHT22;46848;51.980;5.918;2023-07-29T06:35:31;21.00;75.30
43520;DHT22;46848;51.980;5.918;2023-07-29T06:37:57;21.20;75.10
43520;DHT22;46848;51.980;5.918;2023-07-29T06:40:22;21.30;74.80
43520;DHT22;46848;51.980;5.918;2023-07-29T06:42:48;21.40;74.30
43520;DHT22;46848;51.980;5.918;2023-07-29T06:45:14;21.60;73.80
43520;DHT22;46848;51.980;5.918;2023-07-29T06:47:40;21.70;73.60
43520;DHT22;46848;51.980;5.918;2023-07-29T06:50:06;21.70;73.30
43520;DHT22;46848;51.980;5.918;2023-07-29T06:52:32;21.80;73.20
43520;DHT22;46848;51.980;5.918;2023-07-29T06:54:58;21.80;73.10
43520;DHT22;46848;51.980;5.918;2023-07-29T06:57:24;21.90;72.80
43520;DHT22;46848;51.980;5.918;2023-07-29T06:59:49;22.00;72.80
43520;DHT22;46848;51.980;5.918;2023-07-29T07:02:15;22.10;72.80
43520;DHT22;46848;51.980;5.918;2023-07-29T07:04:40;22.20;72.70
43520;DHT22;46848;51.980;5.918;2023-07-29T07:07:06;22.30;72.40
43520;DHT22;46848;51.980;5.918;2023-07-29T07:09:32;22.30;72.10
43520;DHT22;46848;51.980;5.918;2023-07-29T07:11:57;22.40;72.10
43520;DHT22;46848;51.980;5.918;2023-07-29T07:14:23;22.40;71.90
43520;DHT22;46848;51.980;5.918;2023-07-29T07:16:48;22.50;71.70
43520;DHT22;46848;51.980;5.918;2023-07-29T07:19:14;22.60;71.60
43520;DHT22;46848;51.980;5.918;2023-07-29T07:21:39;22.60;71.30
43520;DHT22;46848;51.980;5.918;2023-07-29T07:24:05;22.60;71.10
43520;DHT22;46848;51.980;5.918;2023-07-29T07:26:31;22.60;71.00
43520;DHT22;46848;51.980;5.918;2023-07-29T07:28:57;22.60;70.80
43520;DHT22;46848;51.980;5.918;2023-07-29T07:31:22;22.50;70.50
43520;DHT22;46848;51.980;5.918;2023-07-29T07:33:48;22.40;71.10
43520;DHT22;46848;51.980;5.918;2023-07-29T07:36:13;22.40;70.60
43520;DHT22;46848;51.980;5.918;2023-07-29T07:38:39;22.30;70.60
43520;DHT22;46848;51.980;5.918;2023-07-29T07:41:05;22.30;70.70
43520;DHT22;46848;51.980;5.918;2023-07-29T07:43:30;22.30;70.70
43520;DHT22;46848;51.980;5.918;2023-07-29T07:46:00;22.40;70.50
43520;DHT22;46848;51.980;5.918;2023-07-29T07:48:29;22.30;70.40
43520;DHT22;46848;51.980;5.918;2023-07-29T07:50:55;22.30;70.40
43520;DHT22;46848;51.980;5.918;2023-07-29T07:53:20;22.30;70.50
43520;DHT22;46848;51.980;5.918;2023-07-29T07:55:46;22.30;70.40
43520;DHT22;46848;51.980;5.918;2023-07-29T07:58:12;22.20;70.50
43520;DHT22;46848;51.980;5.918;2023-07-29T08:00:38;22.30;70.70
43520;DHT22;46848;51.980;5.918;2023-07-29T08:03:04;22.30;70.90
43520;DHT22;46848;51.980;5.918;2023-07-29T08:05:29;22.40;70.90
43520;DHT22;46848;51.980;5.918;2023-07-29T08:07:55;22.40;70.80
43520;DHT22;46848;51.980;5.918;2023-07-29T08:10:21;22.40;70.70
43520;DHT22;46848;51.980;5.918;2023-07-29T08:12:47;22.30;70.70
43520;DHT22;46848;51.980;5.918;2023-07-29T08:15:12;22.30;70.70
43520;DHT22;46848;51.980;5.918;2023-07-29T08:17:38;22.30;70.90
43520;DHT22;46848;51.980;5.918;2023-07-29T08:20:04;22.20;71.10
43520;DHT22;46848;51.980;5.918;2023-07-29T08:22:29;22.20;71.10
43520;DHT22;46848;51.980;5.918;2023-07-29T08:24:55;22.20;70.90
43520;DHT22;46848;51.980;5.918;2023-07-29T08:27:20;22.20;70.70
43520;DHT22;46848;51.980;5.918;2023-07-29T08:29:46;22.20;70.90
43520;DHT22;46848;51.980;5.918;2023-07-29T08:32:11;22.20;71.00
43520;DHT22;46848;51.980;5.918;2023-07-29T08:34:37;22.20;71.00
43520;DHT22;46848;51.980;5.918;2023-07-29T08:37:03;22.20;70.90
43520;DHT22;46848;51.980;5.918;2023-07-29T08:39:28;22.10;71.00
43520;DHT22;46848;51.980;5.918;2023-07-29T08:42:11;22.10;71.10
43520;DHT22;46848;51.980;5.918;2023-07-29T08:44:43;22.10;71.10
43520;DHT22;46848;51.980;5.918;2023-07-29T08:47:09;22.10;71.20
43520;DHT22;46848;51.980;5.918;2023-07-29T08:49:37;22.10;71.20
43520;DHT22;46848;51.980;5.918;2023-07-29T08:52:04;22.00;71.40
43520;DHT22;46848;51.980;5.918;2023-07-29T08:54:30;22.00;71.50
43520;DHT22;46848;51.980;5.918;2023-07-29T08:56:56;22.10;71.40
43520;DHT22;46848;51.980;5.918;2023-07-29T08:59:21;22.20;71.50
43520;DHT22;46848;51.980;5.918;2023-07-29T09:01:47;22.30;71.60
43520;DHT22;46848;51.980;5.918;2023-07-29T09:04:13;22.50;71.30
43520;DHT22;46848;51.980;5.918;2023-07-29T09:06:39;22.60;70.40
43520;DHT22;46848;51.980;5.918;2023-07-29T09:09:07;22.70;69.90
43520;DHT22;46848;51.980;5.918;2023-07-29T09:11:33;22.60;69.50
43520;DHT22;46848;51.980;5.918;2023-07-29T09:13:58;22.70;69.70
43520;DHT22;46848;51.980;5.918;2023-07-29T09:16:24;22.70;69.20
43520;DHT22;46848;51.980;5.918;2023-07-29T09:18:51;22.60;68.90
43520;DHT22;46848;51.980;5.918;2023-07-29T09:21:18;22.50;69.20
43520;DHT22;46848;51.980;5.918;2023-07-29T09:23:48;22.60;69.40
43520;DHT22;46848;51.980;5.918;2023-07-29T09:26:25;22.50;69.30
43520;DHT22;46848;51.980;5.918;2023-07-29T09:28:55;22.50;69.40
43520;DHT22;46848;51.980;5.918;2023-07-29T09:31:23;22.50;69.30
43520;DHT22;46848;51.980;5.918;2023-07-29T09:33:48;22.60;69.50
43520;DHT22;46848;51.980;5.918;2023-07-29T09:36:14;22.60;69.50
43520;DHT22;46848;51.980;5.918;2023-07-29T09:38:40;22.70;69.20
43520;DHT22;46848;51.980;5.918;2023-07-29T09:41:06;22.80;69.00
43520;DHT22;46848;51.980;5.918;2023-07-29T09:43:33;22.90;68.90
43520;DHT22;46848;51.980;5.918;2023-07-29T09:46:03;23.00;68.80
43520;DHT22;46848;51.980;5.918;2023-07-29T09:48:33;23.10;68.20
43520;DHT22;46848;51.980;5.918;2023-07-29T09:50:59;23.20;68.10
43520;DHT22;46848;51.980;5.918;2023-07-29T09:53:25;23.30;67.90
43520;DHT22;46848;51.980;5.918;2023-07-29T09:55:53;23.40;67.60
43520;DHT22;46848;51.980;5.918;2023-07-29T09:58:26;23.40;67.30
43520;DHT22;46848;51.980;5.918;2023-07-29T10:00:52;23.40;67.30
43520;DHT22;46848;51.980;5.918;2023-07-29T10:03:21;23.40;67.20
43520;DHT22;46848;51.980;5.918;2023-07-29T10:05:48;23.40;67.10
43520;DHT22;46848;51.980;5.918;2023-07-29T10:08:14;23.40;67.30
43520;DHT22;46848;51.980;5.918;2023-07-29T10:10:43;23.50;67.30
43520;DHT22;46848;51.980;5.918;2023-07-29T10:13:09;23.50;67.20
43520;DHT22;46848;51.980;5.918;2023-07-29T10:15:36;23.60;67.20
43520;DHT22;46848;51.980;5.918;2023-07-29T10:18:02;23.70;67.10
43520;DHT22;46848;51.980;5.918;2023-07-29T10:20:30;23.80;67.00
43520;DHT22;46848;51.980;5.918;2023-07-29T10:22:59;24.00;66.70
43520;DHT22;46848;51.980;5.918;2023-07-29T10:25:34;24.30;66.40
43520;DHT22;46848;51.980;5.918;2023-07-29T10:28:06;24.60;65.90
43520;DHT22;46848;51.980;5.918;2023-07-29T10:30:32;24.80;65.30
43520;DHT22;46848;51.980;5.918;2023-07-29T10:33:01;25.10;65.00
43520;DHT22;46848;51.980;5.918;2023-07-29T10:35:27;25.30;64.50
43520;DHT22;46848;51.980;5.918;2023-07-29T10:37:53;25.30;63.80
43520;DHT22;46848;51.980;5.918;2023-07-29T10:40:20;25.30;63.70
43520;DHT22;46848;51.980;5.918;2023-07-29T10:43:03;25.20;63.80
43520;DHT22;46848;51.980;5.918;2023-07-29T10:45:39;25.10;63.60
43520;DHT22;46848;51.980;5.918;2023-07-29T10:48:10;25.10;63.90
43520;DHT22;46848;51.980;5.918;2023-07-29T10:50:36;25.10;64.00
43520;DHT22;46848;51.980;5.918;2023-07-29T10:53:02;25.10;64.10
43520;DHT22;46848;51.980;5.918;2023-07-29T11:00:33;25.10;64.00
43520;DHT22;46848;51.980;5.918;2023-07-29T11:03:00;25.00;64.10
43520;DHT22;46848;51.980;5.918;2023-07-29T11:05:27;25.10;64.10
43520;DHT22;46848;51.980;5.918;2023-07-29T11:08:36;25.00;64.00
43520;DHT22;46848;51.980;5.918;2023-07-29T11:11:04;25.10;64.10
43520;DHT22;46848;51.980;5.918;2023-07-29T11:13:31;25.10;64.10
43520;DHT22;46848;51.980;5.918;2023-07-29T11:15:59;25.20;64.10
43520;DHT22;46848;51.980;5.918;2023-07-29T11:18:34;25.30;63.80
43520;DHT22;46848;51.980;5.918;2023-07-29T11:21:01;25.30;63.70
43520;DHT22;46848;51.980;5.918;2023-07-29T11:23:36;25.40;63.80
43520;DHT22;46848;51.980;5.918;2023-07-29T11:26:02;25.40;63.60
43520;DHT22;46848;51.980;5.918;2023-07-29T11:28:28;25.40;63.60
43520;DHT22;46848;51.980;5.918;2023-07-29T11:30:55;25.30;64.10
43520;DHT22;46848;51.980;5.918;2023-07-29T11:33:26;25.20;63.50
43520;DHT22;46848;51.980;5.918;2023-07-29T11:35:54;25.20;63.80
43520;DHT22;46848;51.980;5.918;2023-07-29T11:38:20;25.10;63.90
43520;DHT22;46848;51.980;5.918;2023-07-29T11:41:00;25.00;64.30
43520;DHT22;46848;51.980;5.918;2023-07-29T11:43:28;25.00;64.60
43520;DHT22;46848;51.980;5.918;2023-07-29T11:45:53;24.90;64.60
43520;DHT22;46848;51.980;5.918;2023-07-29T11:48:32;24.80;64.90
43520;DHT22;46848;51.980;5.918;2023-07-29T11:50:58;24.80;65.00
43520;DHT22;46848;51.980;5.918;2023-07-29T11:53:28;24.80;65.10
43520;DHT22;46848;51.980;5.918;2023-07-29T11:55:54;24.80;65.30
43520;DHT22;46848;51.980;5.918;2023-07-29T11:58:20;24.70;65.20
43520;DHT22;46848;51.980;5.918;2023-07-29T12:00:46;24.60;65.50
43520;DHT22;46848;51.980;5.918;2023-07-29T12:03:12;24.60;66.00
43520;DHT22;46848;51.980;5.918;2023-07-29T12:05:38;24.40;66.50
43520;DHT22;46848;51.980;5.918;2023-07-29T12:08:04;24.20;67.10
43520;DHT22;46848;51.980;5.918;2023-07-29T12:10:30;24.10;67.70
43520;DHT22;46848;51.980;5.918;2023-07-29T12:12:56;23.90;68.10
43520;DHT22;46848;51.980;5.918;2023-07-29T12:15:26;23.80;68.60
43520;DHT22;46848;51.980;5.918;2023-07-29T12:17:59;23.70;69.00
43520;DHT22;46848;51.980;5.918;2023-07-29T12:20:25;23.60;69.40
43520;DHT22;46848;51.980;5.918;2023-07-29T12:22:55;23.50;69.60
43520;DHT22;46848;51.980;5.918;2023-07-29T12:25:21;23.40;69.80
43520;DHT22;46848;51.980;5.918;2023-07-29T12:27:47;23.40;70.00
43520;DHT22;46848;51.980;5.918;2023-07-29T12:30:13;23.30;70.20
43520;DHT22;46848;51.980;5.918;2023-07-29T12:32:45;23.30;70.40
43520;DHT22;46848;51.980;5.918;2023-07-29T12:35:12;23.20;70.50
43520;DHT22;46848;51.980;5.918;2023-07-29T12:37:37;23.20;70.50
43520;DHT22;46848;51.980;5.918;2023-07-29T12:40:05;23.10;70.70
43520;DHT22;46848;51.980;5.918;2023-07-29T12:42:33;23.10;70.80
43520;DHT22;46848;51.980;5.918;2023-07-29T12:44:58;23.00;70.90
43520;DHT22;46848;51.980;5.918;2023-07-29T12:47:24;23.10;71.10
43520;DHT22;46848;51.980;5.918;2023-07-29T12:49:49;23.00;71.20
43520;DHT22;46848;51.980;5.918;2023-07-29T12:52:16;23.00;71.30
43520;DHT22;46848;51.980;5.918;2023-07-29T12:54:41;23.10;71.30
43520;DHT22;46848;51.980;5.918;2023-07-29T12:57:09;23.10;71.10
43520;DHT22;46848;51.980;5.918;2023-07-29T12:59:35;23.20;71.20
43520;DHT22;46848;51.980;5.918;2023-07-29T13:02:00;23.20;71.20
43520;DHT22;46848;51.980;5.918;2023-07-29T13:04:26;23.30;71.20
43520;DHT22;46848;51.980;5.918;2023-07-29T13:06:51;23.30;70.80
43520;DHT22;46848;51.980;5.918;2023-07-29T13:09:17;23.30;70.70
43520;DHT22;46848;51.980;5.918;2023-07-29T13:11:42;23.40;70.90
43520;DHT22;46848;51.980;5.918;2023-07-29T13:14:08;23.50;71.00
43520;DHT22;46848;51.980;5.918;2023-07-29T13:16:34;23.50;70.70
43520;DHT22;46848;51.980;5.918;2023-07-29T13:18:59;23.50;70.30
43520;DHT22;46848;51.980;5.918;2023-07-29T13:21:25;23.60;70.20
43520;DHT22;46848;51.980;5.918;2023-07-29T13:23:51;23.60;70.00
43520;DHT22;46848;51.980;5.918;2023-07-29T13:26:17;23.60;70.10
43520;DHT22;46848;51.980;5.918;2023-07-29T13:28:43;23.70;70.00
43520;DHT22;46848;51.980;5.918;2023-07-29T13:31:08;23.80;69.90
43520;DHT22;46848;51.980;5.918;2023-07-29T13:33:34;23.80;69.30
43520;DHT22;46848;51.980;5.918;2023-07-29T13:36:00;23.70;69.10
43520;DHT22;46848;51.980;5.918;2023-07-29T13:38:28;23.70;69.90
43520;DHT22;46848;51.980;5.918;2023-07-29T13:40:54;23.60;69.30
43520;DHT22;46848;51.980;5.918;2023-07-29T13:43:19;23.60;69.40
43520;DHT22;46848;51.980;5.918;2023-07-29T13:45:45;23.60;69.30
43520;DHT22;46848;51.980;5.918;2023-07-29T13:48:14;23.70;69.60
43520;DHT22;46848;51.980;5.918;2023-07-29T13:50:39;23.80;69.60
43520;DHT22;46848;51.980;5.918;2023-07-29T13:53:05;23.80;69.20
43520;DHT22;46848;51.980;5.918;2023-07-29T13:55:30;23.90;69.10
43520;DHT22;46848;51.980;5.918;2023-07-29T13:57:56;23.90;69.30
43520;DHT22;46848;51.980;5.918;2023-07-29T14:00:21;23.90;69.10
43520;DHT22;46848;51.980;5.918;2023-07-29T14:02:47;23.80;68.80
43520;DHT22;46848;51.980;5.918;2023-07-29T14:05:13;23.80;68.80
43520;DHT22;46848;51.980;5.918;2023-07-29T14:07:39;23.80;69.00
43520;DHT22;46848;51.980;5.918;2023-07-29T14:10:05;23.80;69.50
43520;DHT22;46848;51.980;5.918;2023-07-29T14:12:31;24.00;69.30
43520;DHT22;46848;51.980;5.918;2023-07-29T14:14:56;24.00;69.10
43520;DHT22;46848;51.980;5.918;2023-07-29T14:17:22;24.10;68.80
43520;DHT22;46848;51.980;5.918;2023-07-29T14:19:47;24.20;68.80
43520;DHT22;46848;51.980;5.918;2023-07-29T14:22:16;24.10;68.70
43520;DHT22;46848;51.980;5.918;2023-07-29T14:24:41;24.10;68.60
43520;DHT22;46848;51.980;5.918;2023-07-29T14:27:07;24.00;68.60
43520;DHT22;46848;51.980;5.918;2023-07-29T14:29:33;24.00;68.70
43520;DHT22;46848;51.980;5.918;2023-07-29T14:31:58;24.10;68.60
43520;DHT22;46848;51.980;5.918;2023-07-29T14:34:24;24.20;68.60
43520;DHT22;46848;51.980;5.918;2023-07-29T14:36:49;24.40;68.60
43520;DHT22;46848;51.980;5.918;2023-07-29T14:39:15;24.50;68.50
43520;DHT22;46848;51.980;5.918;2023-07-29T14:41:40;24.50;68.20
43520;DHT22;46848;51.980;5.918;2023-07-29T14:44:06;24.40;67.90
43520;DHT22;46848;51.980;5.918;2023-07-29T14:46:32;24.30;67.90
43520;DHT22;46848;51.980;5.918;2023-07-29T14:48:58;24.30;68.20
43520;DHT22;46848;51.980;5.918;2023-07-29T14:51:23;24.30;68.20
43520;DHT22;46848;51.980;5.918;2023-07-29T14:53:49;24.40;68.20
43520;DHT22;46848;51.980;5.918;2023-07-29T14:56:14;24.50;68.10
43520;DHT22;46848;51.980;5.918;2023-07-29T15:01:28;24.50;68.10
43520;DHT22;46848;51.980;5.918;2023-07-29T15:03:54;24.60;68.10
43520;DHT22;46848;51.980;5.918;2023-07-29T15:06:19;24.60;68.00
43520;DHT22;46848;51.980;5.918;2023-07-29T15:08:45;24.60;68.40
43520;DHT22;46848;51.980;5.918;2023-07-29T15:11:10;24.60;67.60
43520;DHT22;46848;51.980;5.918;2023-07-29T15:13:36;24.60;67.70
43520;DHT22;46848;51.980;5.918;2023-07-29T15:16:02;24.60;67.70
43520;DHT22;46848;51.980;5.918;2023-07-29T15:18:36;24.60;67.50
43520;DHT22;46848;51.980;5.918;2023-07-29T15:21:05;24.60;67.50
43520;DHT22;46848;51.980;5.918;2023-07-29T15:23:30;24.60;67.60
43520;DHT22;46848;51.980;5.918;2023-07-29T15:25:56;24.50;67.10
43520;DHT22;46848;51.980;5.918;2023-07-29T15:28:22;24.50;67.10
43520;DHT22;46848;51.980;5.918;2023-07-29T15:30:47;24.40;67.00
43520;DHT22;46848;51.980;5.918;2023-07-29T15:33:13;24.30;67.00
43520;DHT22;46848;51.980;5.918;2023-07-29T15:35:39;24.40;67.10
43520;DHT22;46848;51.980;5.918;2023-07-29T15:38:05;24.30;66.90
43520;DHT22;46848;51.980;5.918;2023-07-29T15:40:31;24.30;66.60